createdAt,value
2019-04-13T00:01:45.087Z,0.70
2019-04-13T00:04:11.008Z,0.71
2019-04-13T00:06:37.033Z,0.66
2019-04-13T00:09:05.114Z,0.62
2019-04-13T00:11:31.130Z,0.62
2019-04-13T00:13:57.147Z,0.61
2019-04-13T00:16:23.535Z,0.62
2019-04-13T00:18:49.558Z,0.59
2019-04-13T00:21:15.647Z,0.69
2019-04-13T00:23:41.749Z,0.78
2019-04-13T00:26:07.875Z,0.79
2019-04-13T00:28:33.894Z,0.85
2019-04-13T00:30:59.824Z,0.87
2019-04-13T00:33:25.837Z,1.03
2019-04-13T00:35:51.865Z,1.14
2019-04-13T00:38:17.883Z,1.28
2019-04-13T00:40:43.907Z,1.30
2019-04-13T00:43:10.075Z,1.31
2019-04-13T00:45:36.363Z,1.38
2019-04-13T00:48:02.793Z,1.38
2019-04-13T00:50:28.919Z,1.48
2019-04-13T00:52:54.946Z,1.51
2019-04-13T00:55:21.014Z,1.54
2019-04-13T00:57:47.089Z,1.58
2019-04-13T01:00:14.037Z,1.36
2019-04-13T01:02:40.063Z,1.32
2019-04-13T01:05:06.279Z,1.32
2019-04-13T01:07:32.376Z,1.26
2019-04-13T01:09:58.531Z,1.27
2019-04-13T01:12:24.553Z,1.28
2019-04-13T01:14:50.679Z,1.29
2019-04-13T01:17:16.915Z,1.40
2019-04-13T01:19:42.934Z,1.48
2019-04-13T01:22:09.054Z,1.46
2019-04-13T01:24:35.076Z,1.47
2019-04-13T01:27:01.302Z,1.47
2019-04-13T01:29:27.408Z,1.49
2019-04-13T01:31:53.665Z,1.52
2019-04-13T01:34:19.755Z,1.52
2019-04-13T01:36:45.708Z,1.56
2019-04-13T01:39:11.682Z,1.53
2019-04-13T01:41:37.801Z,1.49
2019-04-13T01:44:03.970Z,1.50
2019-04-13T01:46:29.994Z,1.52
2019-04-13T01:48:55.967Z,1.56
2019-04-13T01:51:21.939Z,1.54
2019-04-13T01:53:47.957Z,1.50
2019-04-13T01:56:14.023Z,1.42
2019-04-13T01:58:39.945Z,1.39
2019-04-13T02:01:06.028Z,1.36
2019-04-13T02:03:32.052Z,1.36
2019-04-13T02:05:58.137Z,1.35
2019-04-13T02:08:24.501Z,1.28
2019-04-13T02:10:50.525Z,1.12
2019-04-13T02:13:16.549Z,1.23
2019-04-13T02:15:42.570Z,1.23
2019-04-13T02:18:08.592Z,1.42
2019-04-13T02:20:34.737Z,1.38
2019-04-13T02:23:00.739Z,-1.08
2019-04-13T02:25:26.761Z,1.25
2019-04-13T02:27:52.785Z,1.24
2019-04-13T02:30:19.115Z,1.31
2019-04-13T02:32:45.243Z,1.16
2019-04-13T02:35:11.472Z,1.18
2019-04-13T02:37:37.503Z,1.25
2019-04-13T02:40:03.971Z,1.23
2019-04-13T02:42:29.952Z,1.20
2019-04-13T02:44:55.969Z,0.97
2019-04-13T02:47:21.995Z,1.02
2019-04-13T02:49:48.012Z,1.08
2019-04-13T02:52:14.034Z,1.20
2019-04-13T02:54:40.059Z,1.23
2019-04-13T02:57:06.486Z,1.09
2019-04-13T02:59:32.610Z,1.09
2019-04-13T03:01:58.623Z,1.11
2019-04-13T03:04:24.551Z,1.14
2019-04-13T03:06:50.680Z,1.25
2019-04-13T03:09:16.805Z,1.28
2019-04-13T03:11:42.927Z,1.22
2019-04-13T03:14:08.899Z,1.11
2019-04-13T03:16:34.975Z,0.92
2019-04-13T03:19:00.996Z,0.94
2019-04-13T03:21:27.224Z,0.99
2019-04-13T03:23:53.348Z,1.03
2019-04-13T03:26:19.369Z,1.17
2019-04-13T03:28:45.530Z,1.06
2019-04-13T03:31:11.565Z,1.03
2019-04-13T03:33:37.540Z,1.07
2019-04-13T03:36:03.562Z,1.27
2019-04-13T03:38:29.791Z,1.31
2019-04-13T03:40:55.718Z,1.37
2019-04-13T03:43:21.732Z,1.34
2019-04-13T03:45:47.655Z,1.41
2019-04-13T03:48:13.675Z,1.42
2019-04-13T03:50:39.698Z,1.43
2019-04-13T03:53:05.720Z,1.45
2019-04-13T03:55:31.649Z,1.30
2019-04-13T03:57:57.663Z,1.15
2019-04-13T04:00:23.888Z,1.13
2019-04-13T04:02:49.854Z,1.18
2019-04-13T04:05:15.879Z,1.08
2019-04-13T04:07:41.962Z,0.81
2019-04-13T04:10:08.490Z,0.70
2019-04-13T04:12:34.518Z,0.81
2019-04-13T04:15:00.537Z,0.80
2019-04-13T04:17:26.560Z,0.74
2019-04-13T04:19:52.504Z,0.76
2019-04-13T04:22:18.624Z,0.79
2019-04-13T04:24:44.732Z,0.75
2019-04-13T04:27:10.780Z,0.83
2019-04-13T04:29:37.070Z,0.95
2019-04-13T04:32:03.024Z,0.86
2019-04-13T04:34:29.023Z,0.85
2019-04-13T04:36:55.113Z,1.03
2019-04-13T04:39:21.069Z,1.27
2019-04-13T04:41:47.143Z,1.33
2019-04-13T04:44:13.113Z,1.35
2019-04-13T04:46:39.238Z,1.37
2019-04-13T04:49:05.261Z,1.36
2019-04-13T04:51:31.280Z,1.41
2019-04-13T04:53:57.304Z,1.36
2019-04-13T04:56:23.246Z,1.31
2019-04-13T04:58:49.255Z,1.43
2019-04-13T05:01:15.693Z,1.32
2019-04-13T05:03:41.700Z,1.12
2019-04-13T05:06:07.828Z,1.09
2019-04-13T05:08:33.801Z,1.05
2019-04-13T05:10:59.766Z,0.91
2019-04-13T05:13:25.790Z,0.94
2019-04-13T05:15:52.128Z,0.88
2019-04-13T05:18:18.148Z,0.96
2019-04-13T05:20:44.164Z,1.15
2019-04-13T05:23:10.189Z,1.16
2019-04-13T05:25:36.354Z,1.19
2019-04-13T05:28:02.337Z,1.30
2019-04-13T05:30:28.357Z,1.26
2019-04-13T05:32:54.891Z,1.21
2019-04-13T05:35:20.913Z,1.06
2019-04-13T05:37:47.042Z,1.09
2019-04-13T05:40:13.270Z,0.92
2019-04-13T05:42:39.706Z,0.94
2019-04-13T05:45:06.059Z,1.22
2019-04-13T05:47:32.254Z,1.23
2019-04-13T05:49:58.220Z,1.37
2019-04-13T05:52:24.298Z,1.40
2019-04-13T05:54:50.263Z,1.42
2019-04-13T05:57:16.241Z,1.41
2019-04-13T05:59:42.367Z,1.58
2019-04-13T06:02:08.405Z,1.69
2019-04-13T06:04:34.410Z,1.34
2019-04-13T06:07:00.745Z,1.16
2019-04-13T06:09:27.044Z,1.20
2019-04-13T06:11:53.302Z,1.25
2019-04-13T06:14:19.269Z,1.31
2019-04-13T06:16:45.242Z,1.28
2019-04-13T06:19:11.368Z,1.26
2019-04-13T06:21:40.162Z,1.56
2019-04-13T06:24:05.608Z,1.69
2019-04-13T06:26:31.583Z,2.07
2019-04-13T06:28:57.609Z,2.05
2019-04-13T06:31:23.607Z,2.21
2019-04-13T06:33:49.549Z,2.45
2019-04-13T06:36:15.572Z,2.62
2019-04-13T06:38:41.592Z,2.48
2019-04-13T06:41:10.905Z,2.04
2019-04-13T06:43:35.790Z,1.92
2019-04-13T06:46:01.858Z,1.89
2019-04-13T06:48:27.784Z,1.84
2019-04-13T06:50:53.860Z,1.93
2019-04-13T06:53:19.978Z,1.95
2019-04-13T06:55:46.005Z,1.97
2019-04-13T06:58:13.193Z,2.11
2019-04-13T07:00:41.839Z,2.24
2019-04-13T07:03:09.394Z,2.21
2019-04-13T07:05:35.723Z,2.09
2019-04-13T07:08:01.850Z,2.10
2019-04-13T07:10:30.879Z,2.06
2019-04-13T07:12:55.946Z,2.31
2019-04-13T07:15:23.499Z,2.28
2019-04-13T07:17:49.481Z,2.39
2019-04-13T07:20:15.443Z,2.27
2019-04-13T07:22:41.489Z,2.31
2019-04-13T07:25:10.373Z,2.31
2019-04-13T07:27:35.559Z,2.49
2019-04-13T07:30:01.718Z,2.82
2019-04-13T07:32:27.925Z,2.46
2019-04-13T07:34:54.021Z,2.57
2019-04-13T07:37:20.055Z,2.39
2019-04-13T07:39:48.293Z,2.60
2019-04-13T07:42:14.047Z,2.79
2019-04-13T07:44:40.073Z,3.27
2019-04-13T07:47:06.298Z,3.43
2019-04-13T07:49:32.218Z,3.34
2019-04-13T07:51:58.450Z,3.15
2019-04-13T07:54:24.568Z,2.81
2019-04-13T07:56:52.722Z,2.68
2019-04-13T07:59:19.212Z,2.48
2019-04-13T08:01:56.223Z,2.90
2019-04-13T08:04:13.575Z,3.23
2019-04-13T08:06:39.703Z,3.52
2019-04-13T08:09:05.934Z,3.40
2019-04-13T08:11:33.587Z,3.62
2019-04-13T08:13:59.609Z,3.25
2019-04-13T08:16:25.647Z,2.79
2019-04-13T08:18:51.655Z,3.69
2019-04-13T08:21:17.729Z,3.62
2019-04-13T08:23:43.801Z,3.57
2019-04-13T08:26:09.890Z,3.71
2019-04-13T08:28:35.953Z,3.92
2019-04-13T08:31:02.082Z,3.38
2019-04-13T08:33:28.213Z,3.46
2019-04-13T08:35:54.222Z,3.37
2019-04-13T08:38:20.450Z,3.36
2019-04-13T08:40:47.268Z,3.26
2019-04-13T08:43:13.518Z,3.45
2019-04-13T08:45:43.897Z,3.67
2019-04-13T08:48:07.467Z,3.82
2019-04-13T08:50:33.452Z,3.99
2019-04-13T08:52:59.453Z,4.05
2019-04-13T08:55:25.422Z,3.77
2019-04-13T08:57:51.416Z,3.72
2019-04-13T09:00:19.364Z,3.82
2019-04-13T09:02:45.599Z,3.64
2019-04-13T09:05:11.918Z,3.46
2019-04-13T09:07:39.271Z,3.62
2019-04-13T09:10:07.225Z,3.80
2019-04-13T09:12:34.477Z,3.99
2019-04-13T09:15:01.685Z,4.03
2019-04-13T09:17:30.451Z,3.89
2019-04-13T09:19:57.071Z,3.65
2019-04-13T09:22:24.523Z,4.04
2019-04-13T09:24:52.865Z,3.32
2019-04-13T09:27:18.722Z,3.06
2019-04-13T09:29:47.045Z,3.10
2019-04-13T09:32:12.909Z,3.33
2019-04-13T09:34:39.036Z,3.78
2019-04-13T09:37:05.062Z,4.00
2019-04-13T09:39:31.077Z,3.89
2019-04-13T09:41:57.509Z,3.68
2019-04-13T09:44:23.564Z,3.42
2019-04-13T09:46:49.656Z,3.81
2019-04-13T09:49:19.520Z,4.13
2019-04-13T09:51:47.177Z,4.12
2019-04-13T09:54:13.743Z,4.37
2019-04-13T09:56:39.732Z,4.06
2019-04-13T09:59:05.763Z,3.73
2019-04-13T10:01:31.732Z,3.81
2019-04-13T10:03:57.710Z,3.92
2019-04-13T10:06:23.640Z,4.14
2019-04-13T10:08:55.692Z,4.12
2019-04-13T10:11:20.824Z,4.24
2019-04-13T10:13:46.067Z,4.24
2019-04-13T10:16:13.601Z,4.36
2019-04-13T10:18:39.733Z,4.31
2019-04-13T10:21:05.952Z,4.31
2019-04-13T10:23:32.184Z,4.30
2019-04-13T10:25:58.406Z,4.27
2019-04-13T10:28:24.429Z,4.38
2019-04-13T10:30:53.451Z,4.35
2019-04-13T10:33:18.624Z,4.38
2019-04-13T10:35:46.861Z,4.17
2019-04-13T10:38:12.718Z,4.00
2019-04-13T10:40:38.714Z,4.26
2019-04-13T10:43:04.973Z,4.33
2019-04-13T10:45:30.990Z,4.45
2019-04-13T10:47:57.031Z,4.58
2019-04-13T10:50:23.032Z,4.57
2019-04-13T10:52:49.001Z,4.87
2019-04-13T10:55:15.189Z,4.75
2019-04-13T10:57:41.412Z,4.84
2019-04-13T11:00:07.944Z,4.67
2019-04-13T11:02:34.227Z,4.71
2019-04-13T11:05:00.297Z,5.08
2019-04-13T11:07:26.322Z,4.96
2019-04-13T11:09:52.443Z,4.86
2019-04-13T11:12:18.464Z,4.55
2019-04-13T11:14:44.487Z,4.46
2019-04-13T11:17:10.612Z,4.68
2019-04-13T11:19:40.320Z,4.60
2019-04-13T11:22:04.706Z,4.89
2019-04-13T11:24:30.731Z,5.30
2019-04-13T11:26:56.749Z,5.39
2019-04-13T11:29:22.774Z,5.61
2019-04-13T11:31:48.899Z,5.35
2019-04-13T11:34:14.921Z,5.04
2019-04-13T11:36:40.944Z,4.13
2019-04-13T11:39:06.964Z,4.14
2019-04-13T11:41:33.196Z,4.15
2019-04-13T11:43:59.263Z,4.56
2019-04-13T11:46:29.132Z,4.39
2019-04-13T11:48:53.228Z,4.22
2019-04-13T11:51:20.983Z,4.43
2019-04-13T11:53:47.402Z,4.43
2019-04-13T11:56:13.426Z,4.73
2019-04-13T11:58:39.450Z,4.59
2019-04-13T12:01:07.016Z,4.47
2019-04-13T12:03:33.335Z,4.28
2019-04-13T12:05:59.364Z,4.40
2019-04-13T12:08:26.244Z,4.48
2019-04-13T12:10:53.219Z,4.74
2019-04-13T12:13:19.265Z,5.16
2019-04-13T12:15:45.213Z,5.62
2019-04-13T12:18:11.299Z,5.54
2019-04-13T12:20:37.334Z,5.67
2019-04-13T12:23:03.469Z,5.85
2019-04-13T12:25:29.394Z,5.66
2019-04-13T12:27:55.331Z,6.00
2019-04-13T12:30:21.423Z,6.03
2019-04-13T12:32:47.779Z,5.92
2019-04-13T12:35:14.289Z,5.34
2019-04-13T12:37:40.411Z,4.89
2019-04-13T12:40:08.424Z,4.61
2019-04-13T12:42:34.709Z,4.68
2019-04-13T12:45:00.837Z,4.82
2019-04-13T12:47:26.858Z,4.65
2019-04-13T12:49:52.986Z,4.84
2019-04-13T12:52:19.108Z,5.43
2019-04-13T12:54:45.239Z,5.79
2019-04-13T12:57:15.774Z,5.92
2019-04-13T12:59:40.146Z,5.33
2019-04-13T13:02:06.168Z,5.25
2019-04-13T13:04:32.098Z,5.73
2019-04-13T13:06:58.224Z,5.33
2019-04-13T13:09:24.333Z,5.54
2019-04-13T13:11:50.274Z,5.69
2019-04-13T13:14:16.278Z,5.80
2019-04-13T13:16:46.097Z,6.25
2019-04-13T13:19:10.269Z,6.58
2019-04-13T13:21:38.454Z,6.36
2019-04-13T13:24:04.266Z,6.72
2019-04-13T13:26:30.281Z,6.91
2019-04-13T13:28:56.374Z,6.67
2019-04-13T13:31:22.538Z,6.27
2019-04-13T13:33:48.963Z,6.19
2019-04-13T13:36:14.997Z,6.00
2019-04-13T13:38:41.007Z,6.20
2019-04-13T13:41:07.036Z,6.00
2019-04-13T13:43:33.052Z,6.06
2019-04-13T13:45:58.988Z,6.41
2019-04-13T13:48:25.002Z,6.17
2019-04-13T13:50:53.268Z,6.60
2019-04-13T13:53:19.205Z,6.85
2019-04-13T13:55:45.544Z,6.28
2019-04-13T13:58:11.836Z,6.74
2019-04-13T14:00:37.979Z,7.05
2019-04-13T14:03:04.104Z,7.07
2019-04-13T14:05:30.348Z,6.80
2019-04-13T14:07:56.556Z,6.76
2019-04-13T14:10:22.576Z,5.94
2019-04-13T14:12:48.599Z,5.90
2019-04-13T14:15:14.604Z,5.63
2019-04-13T14:17:40.542Z,5.24
2019-04-13T14:20:07.182Z,5.93
2019-04-13T14:22:33.217Z,6.70
2019-04-13T14:24:59.192Z,6.71
2019-04-13T14:27:25.245Z,6.44
2019-04-13T14:29:51.322Z,6.40
2019-04-13T14:32:17.290Z,6.42
2019-04-13T14:34:43.311Z,5.78
2019-04-13T14:37:09.336Z,5.44
2019-04-13T14:39:35.608Z,5.94
2019-04-13T14:42:01.688Z,6.54
2019-04-13T14:44:27.709Z,6.62
2019-04-13T14:46:53.750Z,6.70
2019-04-13T14:49:19.756Z,6.97
2019-04-13T14:51:45.797Z,6.51
2019-04-13T14:54:11.803Z,6.26
2019-04-13T14:56:37.824Z,6.25
2019-04-13T14:59:04.118Z,6.55
2019-04-13T15:01:30.173Z,6.82
2019-04-13T15:03:56.235Z,7.13
2019-04-13T15:06:24.920Z,7.59
2019-04-13T15:08:50.188Z,7.67
2019-04-13T15:11:17.381Z,7.79
2019-04-13T15:13:43.668Z,7.27
2019-04-13T15:16:13.755Z,7.14
2019-04-13T15:18:39.097Z,6.67
2019-04-13T15:21:06.773Z,5.84
2019-04-13T15:23:36.526Z,5.90
2019-04-13T15:26:01.671Z,6.09
2019-04-13T15:28:33.257Z,5.87
2019-04-13T15:30:59.720Z,5.89
2019-04-13T15:33:24.194Z,6.26
2019-04-13T15:35:54.566Z,6.42
2019-04-13T15:38:23.112Z,6.41
2019-04-13T15:40:51.015Z,6.40
2019-04-13T15:43:21.338Z,5.97
2019-04-13T15:45:47.531Z,5.93
2019-04-13T15:48:11.736Z,5.76
2019-04-13T15:50:38.222Z,6.26
2019-04-13T15:53:04.282Z,6.31
2019-04-13T15:55:31.638Z,6.51
2019-04-13T15:57:59.898Z,6.68
2019-04-13T16:00:25.955Z,6.57
2019-04-13T16:02:52.087Z,5.75
2019-04-13T16:05:18.095Z,5.10
2019-04-13T16:07:45.080Z,4.83
2019-04-13T16:10:11.573Z,4.83
2019-04-13T16:12:38.547Z,4.78
2019-04-13T16:15:05.514Z,4.66
2019-04-13T16:17:31.883Z,4.74
2019-04-13T16:19:59.049Z,4.87
2019-04-13T16:22:25.540Z,4.97
2019-04-13T16:24:52.614Z,5.18
2019-04-13T16:27:18.957Z,5.17
2019-04-13T16:29:44.976Z,5.50
2019-04-13T16:32:12.341Z,5.68
2019-04-13T16:34:38.768Z,5.56
2019-04-13T16:37:04.981Z,5.10
2019-04-13T16:39:31.216Z,5.28
2019-04-13T16:42:04.607Z,5.49
2019-04-13T16:44:26.706Z,5.32
2019-04-13T16:46:53.660Z,5.20
2019-04-13T16:49:23.501Z,4.85
2019-04-13T16:51:48.495Z,4.74
2019-04-13T16:54:14.893Z,4.94
2019-04-13T16:56:41.594Z,4.87
2019-04-13T16:59:07.896Z,4.68
2019-04-13T17:01:33.982Z,4.66
2019-04-13T17:04:01.077Z,4.71
2019-04-13T17:06:28.684Z,4.54
2019-04-13T17:08:55.574Z,4.48
2019-04-13T17:11:21.884Z,4.46
2019-04-13T17:13:49.080Z,4.50
2019-04-13T17:16:15.173Z,4.56
2019-04-13T17:18:42.367Z,4.56
2019-04-13T17:21:08.755Z,4.61
2019-04-13T17:23:35.765Z,4.50
2019-04-13T17:26:02.323Z,4.30
2019-04-13T17:28:28.857Z,4.40
2019-04-13T17:30:55.103Z,4.23
2019-04-13T17:33:21.359Z,4.02
2019-04-13T17:35:49.693Z,3.96
2019-04-13T17:38:15.681Z,3.87
2019-04-13T17:40:42.736Z,3.88
2019-04-13T17:43:09.570Z,3.61
2019-04-13T17:45:35.631Z,3.53
2019-04-13T17:48:02.401Z,3.56
2019-04-13T17:50:28.632Z,3.47
2019-04-13T17:52:55.025Z,3.49
2019-04-13T17:55:21.160Z,3.35
2019-04-13T17:57:47.565Z,3.32
2019-04-13T18:00:13.919Z,3.34
2019-04-13T18:02:40.460Z,3.41
2019-04-13T18:05:06.844Z,3.58
2019-04-13T18:07:32.908Z,3.63
2019-04-13T18:10:00.014Z,3.49
2019-04-13T18:12:37.475Z,3.43
2019-04-13T18:14:54.213Z,3.44
2019-04-13T18:17:20.468Z,3.45
2019-04-13T18:19:46.470Z,3.47
2019-04-13T18:22:12.631Z,3.46
2019-04-13T18:24:38.658Z,3.42
2019-04-13T18:27:04.791Z,3.23
2019-04-13T18:29:30.900Z,3.11
2019-04-13T18:31:57.026Z,2.94
2019-04-13T18:34:26.627Z,2.74
2019-04-13T18:36:52.651Z,2.64
2019-04-13T18:39:19.103Z,2.44
2019-04-13T18:41:46.999Z,2.50
2019-04-13T18:44:13.665Z,2.51
2019-04-13T18:46:40.653Z,2.54
2019-04-13T18:49:07.497Z,2.39
2019-04-13T18:51:33.659Z,2.36
2019-04-13T18:54:00.816Z,2.31
2019-04-13T18:56:27.460Z,2.31
2019-04-13T18:58:54.461Z,2.31
2019-04-13T19:01:21.935Z,2.37
2019-04-13T19:03:49.141Z,2.27
2019-04-13T19:06:26.575Z,2.35
2019-04-13T19:08:43.135Z,2.39
2019-04-13T19:11:09.360Z,2.24
2019-04-13T19:13:35.484Z,2.27
2019-04-13T19:16:01.507Z,2.30
2019-04-13T19:18:27.529Z,2.32
2019-04-13T19:20:53.755Z,2.26
2019-04-13T19:23:19.790Z,2.39
2019-04-13T19:25:45.813Z,2.49
2019-04-13T19:28:12.129Z,2.46
2019-04-13T19:30:38.154Z,2.35
2019-04-13T19:33:04.281Z,2.23
2019-04-13T19:35:30.304Z,2.09
2019-04-13T19:37:56.835Z,2.05
2019-04-13T19:40:23.163Z,2.03
2019-04-13T19:42:49.391Z,2.02
2019-04-13T19:45:15.524Z,1.96
2019-04-13T19:47:41.745Z,1.91
2019-04-13T19:50:11.186Z,1.86
2019-04-13T19:52:36.859Z,1.90
2019-04-13T19:55:05.144Z,1.89
2019-04-13T19:57:31.260Z,1.86
2019-04-13T19:59:57.489Z,1.79
2019-04-13T20:02:23.872Z,1.68
2019-04-13T20:04:49.937Z,1.57
2019-04-13T20:07:16.067Z,1.45
2019-04-13T20:09:42.298Z,1.39
2019-04-13T20:12:08.422Z,1.37
2019-04-13T20:14:35.152Z,1.37
2019-04-13T20:17:02.088Z,1.40
2019-04-13T20:19:28.357Z,1.42
2019-04-13T20:21:54.769Z,1.45
2019-04-13T20:24:20.788Z,1.47
2019-04-13T20:26:46.954Z,1.47
2019-04-13T20:29:14.157Z,1.50
2019-04-13T20:31:40.388Z,1.51
2019-04-13T20:34:07.649Z,1.49
2019-04-13T20:36:36.742Z,1.48
2019-04-13T20:39:07.018Z,1.44
2019-04-13T20:41:42.611Z,1.41
2019-04-13T20:44:07.400Z,1.36
2019-04-13T20:46:29.990Z,1.35
2019-04-13T20:48:57.481Z,1.32
2019-04-13T20:51:23.724Z,1.29
2019-04-13T20:53:49.744Z,1.20
2019-04-13T20:56:16.533Z,1.13
2019-04-13T20:58:42.694Z,1.17
2019-04-13T21:01:08.754Z,1.18
2019-04-13T21:03:35.986Z,1.29
2019-04-13T21:06:02.380Z,1.31
2019-04-13T21:08:28.366Z,1.32
2019-04-13T21:10:54.747Z,1.44
2019-04-13T21:13:20.896Z,1.43
2019-04-13T21:15:47.021Z,1.46
2019-04-13T21:18:13.055Z,1.51
2019-04-13T21:20:42.661Z,1.51
2019-04-13T21:23:08.207Z,1.43
2019-04-13T21:25:35.786Z,1.32
2019-04-13T21:28:01.989Z,1.22
2019-04-13T21:30:29.380Z,1.15
2019-04-13T21:32:55.622Z,1.00
2019-04-13T21:35:23.084Z,1.10
2019-04-13T21:37:49.212Z,1.13
2019-04-13T21:40:16.480Z,1.12
2019-04-13T21:42:42.577Z,1.14
2019-04-13T21:45:10.233Z,1.16
2019-04-13T21:47:36.370Z,1.28
2019-04-13T21:50:04.483Z,1.19
2019-04-13T21:52:30.567Z,1.13
2019-04-13T21:54:58.140Z,1.16
2019-04-13T21:57:24.250Z,1.23
2019-04-13T21:59:50.379Z,1.19
2019-04-13T22:02:16.398Z,1.21
2019-04-13T22:04:43.751Z,1.14
2019-04-13T22:07:11.470Z,1.07
2019-04-13T22:09:39.044Z,0.99
2019-04-13T22:12:06.915Z,1.00
2019-04-13T22:14:44.251Z,1.05
2019-04-13T22:17:01.440Z,0.97
2019-04-13T22:19:27.375Z,0.96
2019-04-13T22:21:54.686Z,0.98
2019-04-13T22:24:20.945Z,1.03
2019-04-13T22:26:47.789Z,1.11
2019-04-13T22:29:15.759Z,1.06
2019-04-13T22:31:42.289Z,1.01
2019-04-13T22:34:09.597Z,0.97
2019-04-13T22:36:35.667Z,1.00
2019-04-13T22:39:03.254Z,0.95
2019-04-13T22:41:29.359Z,0.92
2019-04-13T22:43:56.665Z,0.84
2019-04-13T22:46:23.853Z,0.76
2019-04-13T22:48:50.706Z,0.70
2019-04-13T22:51:18.284Z,0.67
2019-04-13T22:53:44.721Z,0.70
2019-04-13T22:56:11.416Z,0.73
2019-04-13T22:58:37.724Z,0.75
2019-04-13T23:01:05.063Z,0.69
2019-04-13T23:03:31.225Z,0.89
2019-04-13T23:05:57.173Z,0.88
2019-04-13T23:08:23.232Z,0.86
2019-04-13T23:10:49.252Z,0.74
2019-04-13T23:13:15.271Z,0.71
2019-04-13T23:15:42.526Z,0.62
2019-04-13T23:18:28.149Z,0.56
2019-04-13T23:21:13.660Z,0.57
2019-04-13T23:23:57.854Z,0.63
2019-04-13T23:26:42.939Z,0.68
2019-04-13T23:29:28.233Z,0.71
2019-04-13T23:32:13.772Z,0.76
2019-04-13T23:34:59.999Z,0.87
2019-04-13T23:37:45.584Z,0.76
2019-04-13T23:40:31.014Z,0.71
2019-04-13T23:43:16.743Z,0.75
2019-04-13T23:46:02.478Z,0.48
2019-04-13T23:48:48.278Z,0.62
2019-04-13T23:51:33.800Z,0.72
2019-04-13T23:54:19.639Z,0.63
2019-04-13T23:57:05.260Z,0.63
2019-04-13T23:59:50.333Z,0.65
